Time;durP1;ratioP1;P1;durP2;ratioP2;P2;SDS_P1;SDS_P2;PMS_P1;PMS_P2;Temp;Humidity;BMP_temperature;BMP_pressure;BME280_temperature;BME280_humidity;BME280_pressure;Samples;Min_cycle;Max_cycle;Signal;HPM_P1;HPM_P2
2022/09/17 00:00:24;;;;;;;20.67;3.15;;;11.40;99.90;;;;;;4978012;28;20560;-66
2022/09/17 00:02:54;;;;;;;16.70;3.05;;;11.40;99.90;;;;;;4978131;28;20042;-66
2022/09/17 00:05:22;;;;;;;14.93;2.90;;;11.30;99.90;;;;;;4977916;28;20568;-66
2022/09/17 00:07:48;;;;;;;22.17;3.95;;;11.30;99.90;;;;;;4977749;28;20557;-66
2022/09/17 00:10:13;;;;;;;18.75;2.75;;;11.30;99.90;;;;;;4977717;28;20055;-66
2022/09/17 00:12:39;;;;;;;14.80;2.90;;;11.30;99.90;;;;;;4977763;28;20042;-66
2022/09/17 00:15:05;;;;;;;17.02;3.40;;;11.30;99.90;;;;;;4977695;28;20042;-66
2022/09/17 00:17:31;;;;;;;17.67;3.08;;;11.30;99.90;;;;;;4977641;28;20553;-66
2022/09/17 00:19:56;;;;;;;18.08;3.15;;;11.30;99.90;;;;;;4961493;28;20121;-66
2022/09/17 00:22:22;;;;;;;17.52;2.88;;;11.30;99.90;;;;;;4977777;28;20082;-66
2022/09/17 00:24:47;;;;;;;21.55;2.97;;;11.30;99.90;;;;;;4977520;28;20088;-66
2022/09/17 00:27:13;;;;;;;19.25;3.20;;;11.30;99.90;;;;;;4961308;28;20038;-66
2022/09/17 00:29:38;;;;;;;22.13;3.15;;;11.30;99.90;;;;;;4977464;28;20173;-66
2022/09/17 00:32:04;;;;;;;17.75;2.90;;;11.30;99.90;;;;;;4977600;28;20042;-66
2022/09/17 00:34:29;;;;;;;18.10;2.70;;;11.40;99.90;;;;;;4977331;28;20046;-66
2022/09/17 00:36:55;;;;;;;16.15;2.78;;;11.40;99.90;;;;;;4977141;28;20113;-66
2022/09/17 00:39:21;;;;;;;13.85;2.47;;;11.50;99.90;;;;;;4977164;28;20046;-66
2022/09/17 00:41:46;;;;;;;13.48;2.60;;;11.50;99.90;;;;;;4977214;28;20046;-66
2022/09/17 00:44:50;;;;;;;14.18;2.40;;;11.50;99.90;;;;;;4977148;28;20065;-66
2022/09/17 00:47:21;;;;;;;;;;;11.60;99.90;;;;;;4977513;28;20123;-66
2022/09/17 00:49:50;;;;;;;18.02;2.30;;;11.50;99.90;;;;;;4977269;28;19965;-66
2022/09/17 00:52:20;;;;;;;14.60;2.55;;;11.40;99.90;;;;;;4976240;28;20053;-66
2022/09/17 00:54:55;;;;;;;17.15;2.42;;;11.40;99.90;;;;;;4976944;28;20050;-66
2022/09/17 00:57:20;;;;;;;14.63;2.33;;;11.40;99.90;;;;;;4976861;28;20049;-66
2022/09/17 00:59:46;;;;;;;12.07;2.20;;;11.40;99.90;;;;;;4977116;28;20038;-66
2022/09/17 01:02:12;;;;;;;14.00;2.30;;;11.40;99.90;;;;;;4976853;28;20046;-66
2022/09/17 01:04:38;;;;;;;14.95;2.28;;;11.40;99.90;;;;;;4976738;28;20061;-66
2022/09/17 01:07:15;;;;;;;11.93;2.88;;;11.30;99.90;;;;;;4976977;28;20049;-66
2022/09/17 01:09:50;;;;;;;15.18;2.78;;;11.30;99.90;;;;;;4976981;28;20042;-66
2022/09/17 01:12:30;;;;;;;17.05;2.92;;;11.30;99.90;;;;;;4976677;28;20034;-66
2022/09/17 01:15:20;;;;;;;16.70;3.47;;;11.30;99.90;;;;;;4976616;28;20045;-66
2022/09/17 01:18:17;;;;;;;13.48;2.60;;;11.30;99.90;;;;;;4960313;28;20499;-66
2022/09/17 01:20:56;;;;;;;10.98;2.47;;;11.30;99.90;;;;;;4976499;28;20046;-66
2022/09/17 01:23:43;;;;;;;12.05;2.63;;;11.20;99.90;;;;;;4976576;28;20537;-66
2022/09/17 01:26:35;;;;;;;13.88;2.58;;;11.10;99.90;;;;;;4960635;28;20487;-66
2022/09/17 01:29:38;;;;;;;17.25;2.80;;;11.10;99.90;;;;;;4940363;28;20533;-67
2022/09/17 01:32:06;;;;;;;15.05;2.30;;;11.10;99.90;;;;;;4976479;28;20125;-66
2022/09/17 01:34:57;;;;;;;18.20;3.83;;;11.00;99.90;;;;;;4976429;28;20038;-66
2022/09/17 01:37:36;;;;;;;20.13;3.58;;;11.00;99.90;;;;;;4976500;28;20104;-66
2022/09/17 01:40:23;;;;;;;17.73;2.88;;;11.00;99.90;;;;;;4976353;28;20042;-66
2022/09/17 01:43:03;;;;;;;18.13;2.80;;;11.00;99.90;;;;;;4976281;28;20402;-66
2022/09/17 01:45:46;;;;;;;14.32;2.53;;;11.00;99.90;;;;;;4976326;28;20043;-66
2022/09/17 01:48:18;;;;;;;13.35;3.10;;;11.00;99.90;;;;;;4976372;28;20057;-66
2022/09/17 01:51:10;;;;;;;15.32;2.67;;;11.00;99.90;;;;;;4977108;28;20101;-66
2022/09/17 01:53:42;;;;;;;17.15;2.75;;;11.00;99.90;;;;;;4976261;28;20050;-66
2022/09/17 01:56:12;;;;;;;16.98;2.58;;;11.00;99.90;;;;;;4976155;28;20053;-66
2022/09/17 01:58:46;;;;;;;18.88;2.92;;;11.00;99.90;;;;;;4976156;28;20046;-66
2022/09/17 02:01:15;;;;;;;18.33;3.20;;;11.00;99.90;;;;;;4976687;28;20042;-67
2022/09/17 02:03:48;;;;;;;20.60;3.10;;;11.00;99.90;;;;;;4996874;28;20046;-66
2022/09/17 02:06:20;;;;;;;17.17;3.03;;;11.00;99.90;;;;;;4963895;28;20491;-66
2022/09/17 02:08:49;;;;;;;20.88;2.45;;;11.00;99.90;;;;;;4964120;28;20046;-66
2022/09/17 02:11:16;;;;;;;16.75;3.30;;;11.00;99.90;;;;;;4979929;28;20048;-66
2022/09/17 02:13:57;;;;;;;14.30;2.90;;;10.90;99.90;;;;;;4979954;28;20129;-66
2022/09/17 02:16:38;;;;;;;17.33;2.83;;;11.00;99.90;;;;;;4979676;28;20042;-66
2022/09/17 02:19:19;;;;;;;18.08;2.50;;;11.00;99.90;;;;;;4979768;28;20042;-66
2022/09/17 02:21:51;;;;;;;14.88;2.35;;;11.00;99.90;;;;;;4980023;28;20081;-66
2022/09/17 02:24:36;;;;;;;;;;;10.90;99.90;;;;;;4980148;28;20046;-66
2022/09/17 02:27:05;;;;;;;16.02;2.63;;;10.80;99.90;;;;;;4979584;28;19945;-66
2022/09/17 02:29:36;;;;;;;15.50;2.50;;;10.90;99.90;;;;;;4963537;28;20070;-66
2022/09/17 02:32:03;;;;;;;16.00;2.42;;;10.90;99.90;;;;;;4979849;28;20043;-66
2022/09/17 02:34:28;;;;;;;18.38;2.80;;;10.90;99.90;;;;;;4963421;28;20533;-66
2022/09/17 02:36:57;;;;;;;15.38;2.60;;;10.90;99.90;;;;;;4979376;28;20066;-66
2022/09/17 02:39:23;;;;;;;18.90;3.08;;;10.90;99.90;;;;;;4979314;28;20113;-66
2022/09/17 02:42:26;;;;;;;15.80;2.75;;;10.90;99.90;;;;;;4979586;28;20133;-66
2022/09/17 02:45:11;;;;;;;18.63;2.88;;;11.00;99.90;;;;;;4967331;28;20491;-66
2022/09/17 02:47:56;;;;;;;14.27;2.53;;;10.90;99.90;;;;;;4979231;28;20223;-66
2022/09/17 02:50:49;;;;;;;21.20;3.20;;;10.90;99.90;;;;;;4979289;28;20463;-66
2022/09/17 02:53:52;;;;;;;14.37;2.53;;;11.00;99.90;;;;;;4979512;28;20137;-66
2022/09/17 02:56:44;;;;;;;17.25;2.97;;;11.00;99.90;;;;;;4979328;28;20300;-66
2022/09/17 02:59:26;;;;;;;17.02;2.88;;;11.10;99.90;;;;;;4979120;28;20054;-66
2022/09/17 03:02:09;;;;;;;14.65;2.70;;;11.10;99.90;;;;;;4979067;28;20046;-66
2022/09/17 03:04:37;;;;;;;17.20;2.83;;;11.10;99.90;;;;;;4979102;28;20039;-66
2022/09/17 03:07:10;;;;;;;14.93;2.38;;;11.10;99.90;;;;;;4978870;28;20042;-66
2022/09/17 03:09:36;;;;;;;19.83;3.25;;;11.10;99.90;;;;;;4979162;28;20041;-66
2022/09/17 03:12:03;;;;;;;11.45;2.08;;;11.10;99.90;;;;;;4978858;28;20414;-66
2022/09/17 03:14:28;;;;;;;12.82;2.25;;;11.00;99.90;;;;;;4977916;28;20495;-66
2022/09/17 03:16:54;;;;;;;12.95;2.17;;;11.00;99.90;;;;;;4978677;28;20129;-66
2022/09/17 03:19:19;;;;;;;15.20;2.33;;;11.00;99.90;;;;;;4978671;28;20046;-66
2022/09/17 03:21:45;;;;;;;16.85;2.30;;;10.90;99.90;;;;;;4978759;28;20117;-66
2022/09/17 03:24:11;;;;;;;14.90;2.88;;;10.90;99.90;;;;;;4962766;28;20045;-66
2022/09/17 03:26:37;;;;;;;11.80;2.42;;;10.90;99.90;;;;;;4978521;28;20046;-66
2022/09/17 03:29:03;;;;;;;10.57;2.10;;;11.00;99.90;;;;;;4978515;28;20042;-66
2022/09/17 03:31:29;;;;;;;10.45;2.20;;;10.90;99.90;;;;;;4978736;28;20077;-66
2022/09/17 03:33:54;;;;;;;13.00;2.03;;;10.90;99.90;;;;;;4978456;28;20053;-66
2022/09/17 03:36:20;;;;;;;14.35;2.13;;;10.90;99.90;;;;;;4978540;28;20054;-66
2022/09/17 03:38:45;;;;;;;10.90;2.00;;;10.80;99.90;;;;;;4978326;28;20085;-66
2022/09/17 03:41:11;;;;;;;8.88;2.13;;;10.80;99.90;;;;;;4978392;28;20049;-66
2022/09/17 03:43:38;;;;;;;14.98;2.33;;;10.80;99.90;;;;;;4978307;28;20074;-66
2022/09/17 03:46:04;;;;;;;11.07;2.40;;;10.70;99.90;;;;;;4978108;28;20117;-66
2022/09/17 03:48:31;;;;;;;11.35;2.10;;;10.70;99.90;;;;;;4978468;28;20185;-66
2022/09/17 03:50:56;;;;;;;9.73;1.92;;;10.60;99.90;;;;;;4978129;28;20046;-66
2022/09/17 03:53:22;;;;;;;13.23;1.95;;;10.60;99.90;;;;;;4978108;28;20054;-66
2022/09/17 03:55:48;;;;;;;14.75;2.20;;;10.50;99.90;;;;;;4977972;28;20057;-66
2022/09/17 03:58:13;;;;;;;10.32;1.98;;;10.40;99.90;;;;;;4978045;28;20050;-66
2022/09/17 04:00:39;;;;;;;13.48;2.03;;;10.40;99.90;;;;;;4978002;28;20053;-66
2022/09/17 04:03:05;;;;;;;12.90;2.45;;;10.50;99.90;;;;;;4978170;28;20085;-66
2022/09/17 04:05:31;;;;;;;9.48;2.00;;;10.50;99.90;;;;;;4977889;28;20434;-66
2022/09/17 04:07:56;;;;;;;10.82;1.88;;;10.60;99.90;;;;;;4978032;28;20156;-66
2022/09/17 04:10:22;;;;;;;13.00;1.85;;;10.60;99.90;;;;;;4977804;28;20598;-66
2022/09/17 04:12:48;;;;;;;15.95;2.30;;;10.60;99.90;;;;;;4977769;28;20057;-66
2022/09/17 04:15:13;;;;;;;11.38;1.75;;;10.60;99.90;;;;;;4995124;28;20042;-66
2022/09/17 04:17:39;;;;;;;12.95;2.10;;;10.70;99.90;;;;;;4977574;28;20048;-66
2022/09/17 04:20:05;;;;;;;13.52;2.28;;;10.70;99.90;;;;;;4977583;28;20487;-66
2022/09/17 04:22:32;;;;;;;10.82;2.28;;;10.70;99.90;;;;;;4977726;28;20127;-66
2022/09/17 04:24:57;;;;;;;13.43;2.03;;;10.60;99.90;;;;;;4977460;28;20084;-66
2022/09/17 04:27:23;;;;;;;13.70;2.47;;;10.70;99.90;;;;;;4995112;28;20050;-66
2022/09/17 04:29:49;;;;;;;17.65;2.10;;;10.60;99.90;;;;;;4977665;28;20034;-66
2022/09/17 04:32:14;;;;;;;15.90;1.83;;;10.60;99.90;;;;;;4977346;28;20557;-66
2022/09/17 04:34:40;;;;;;;12.65;1.80;;;10.60;99.90;;;;;;4977394;28;20065;-66
2022/09/17 04:37:06;;;;;;;15.35;2.40;;;10.60;99.90;;;;;;4977160;28;20039;-66
2022/09/17 04:39:31;;;;;;;16.00;2.42;;;10.60;99.90;;;;;;4977440;28;20034;-66
2022/09/17 04:41:57;;;;;;;13.57;2.15;;;10.60;99.90;;;;;;4977185;28;20088;-66
2022/09/17 04:44:22;;;;;;;14.80;2.30;;;10.60;99.90;;;;;;4977428;28;20078;-66
2022/09/17 04:46:48;;;;;;;11.52;1.77;;;10.50;99.90;;;;;;4977306;28;20391;-66
2022/09/17 04:49:14;;;;;;;16.08;2.55;;;10.50;99.90;;;;;;4994512;28;20507;-66
2022/09/17 04:51:39;;;;;;;17.33;1.98;;;10.60;99.90;;;;;;4976960;28;20529;-66
2022/09/17 04:54:05;;;;;;;13.57;2.63;;;10.50;99.90;;;;;;4976983;28;20050;-66
2022/09/17 04:56:30;;;;;;;12.98;1.98;;;10.50;99.90;;;;;;4994714;28;20035;-66
2022/09/17 04:58:56;;;;;;;16.88;2.60;;;10.50;99.90;;;;;;4976928;28;20042;-66
2022/09/17 05:01:22;;;;;;;13.10;2.42;;;10.50;99.90;;;;;;4976833;28;20045;-66
2022/09/17 05:03:48;;;;;;;14.25;2.15;;;10.50;99.90;;;;;;4976861;28;20046;-66
2022/09/17 05:06:14;;;;;;;12.35;1.98;;;10.40;99.90;;;;;;4976926;28;20057;-66
2022/09/17 05:08:40;;;;;;;10.90;2.08;;;10.40;99.90;;;;;;4960677;28;20414;-66
2022/09/17 05:11:05;;;;;;;14.35;2.17;;;10.40;99.90;;;;;;4976732;28;20046;-66
2022/09/17 05:13:31;;;;;;;14.25;1.90;;;10.30;99.90;;;;;;4994136;28;20042;-65
2022/09/17 05:15:56;;;;;;;12.20;2.00;;;10.40;99.90;;;;;;4976610;28;20121;-66
2022/09/17 05:18:22;;;;;;;16.88;1.83;;;10.30;99.90;;;;;;4976541;28;20043;-66
2022/09/17 05:20:48;;;;;;;17.20;2.78;;;10.40;99.90;;;;;;4976621;28;20034;-66
2022/09/17 05:23:13;;;;;;;13.25;2.35;;;10.30;99.90;;;;;;4976503;28;20042;-66
2022/09/17 05:25:39;;;;;;;10.60;2.00;;;10.30;99.90;;;;;;4976474;28;20042;-66
2022/09/17 05:28:05;;;;;;;13.73;2.33;;;10.30;99.90;;;;;;4976682;28;20110;-66
2022/09/17 05:30:30;;;;;;;13.50;2.05;;;10.30;99.90;;;;;;4976479;28;20046;-66
2022/09/17 05:33:04;;;;;;;14.85;2.28;;;10.30;99.90;;;;;;4993847;28;20047;-65
2022/09/17 05:35:30;;;;;;;9.35;1.80;;;10.30;99.90;;;;;;4976450;28;20049;-65
2022/09/17 05:38:01;;;;;;;12.80;2.13;;;10.30;99.90;;;;;;4975680;28;20411;-66
2022/09/17 05:40:27;;;;;;;11.57;2.85;;;10.30;99.90;;;;;;4976372;28;20043;-66
2022/09/17 05:43:04;;;;;;;11.98;2.35;;;10.30;99.90;;;;;;4976325;28;20076;-66
2022/09/17 05:45:31;;;;;;;11.82;2.08;;;10.30;99.90;;;;;;4976348;28;20050;-66
2022/09/17 05:47:59;;;;;;;14.63;2.70;;;10.30;99.90;;;;;;4960049;28;20502;-66
2022/09/17 05:50:25;;;;;;;13.90;2.50;;;10.40;99.90;;;;;;4976216;28;20510;-66
2022/09/17 05:52:52;;;;;;;12.93;2.17;;;10.40;99.90;;;;;;4960421;28;20069;-66
2022/09/17 05:55:21;;;;;;;13.90;2.20;;;10.40;99.90;;;;;;4976432;28;20081;-66
2022/09/17 05:57:50;;;;;;;12.35;2.08;;;10.40;99.90;;;;;;4976245;28;20046;-66
2022/09/17 06:00:16;;;;;;;11.00;1.92;;;10.40;99.90;;;;;;4976187;28;20038;-66
2022/09/17 06:02:41;;;;;;;12.82;2.20;;;10.40;99.90;;;;;;4976183;28;20049;-66
2022/09/17 06:05:07;;;;;;;16.40;2.70;;;10.50;99.90;;;;;;4976408;28;20042;-66
2022/09/17 06:07:37;;;;;;;12.65;2.17;;;10.60;99.90;;;;;;4976110;28;20052;-66
2022/09/17 06:10:07;;;;;;;13.27;1.98;;;10.60;99.90;;;;;;4976301;28;20049;-66
2022/09/17 06:12:34;;;;;;;11.27;2.15;;;10.60;99.90;;;;;;4976119;28;20046;-66
2022/09/17 06:15:00;;;;;;;10.35;2.60;;;10.70;99.90;;;;;;4993422;28;20074;-66
2022/09/17 06:17:26;;;;;;;13.77;2.15;;;10.70;99.90;;;;;;4975738;28;20465;-66
2022/09/17 06:19:51;;;;;;;11.57;2.20;;;10.60;99.90;;;;;;4975967;28;20121;-66
2022/09/17 06:22:18;;;;;;;12.68;1.90;;;10.60;99.90;;;;;;4975991;28;20121;-66
2022/09/17 06:24:44;;;;;;;13.02;2.42;;;10.60;99.90;;;;;;4975901;28;20046;-66
2022/09/17 06:27:10;;;;;;;11.35;2.03;;;10.50;99.90;;;;;;4975774;28;20043;-66
2022/09/17 06:29:35;;;;;;;11.18;1.75;;;10.50;99.90;;;;;;4975882;28;20035;-66
2022/09/17 06:32:01;;;;;;;11.35;1.92;;;10.50;99.90;;;;;;4993850;28;20042;-66
2022/09/17 06:34:27;;;;;;;11.57;1.70;;;10.50;99.90;;;;;;4975864;28;20110;-66
2022/09/17 06:36:52;;;;;;;9.23;1.70;;;10.50;99.90;;;;;;4975977;28;20097;-66
2022/09/17 06:39:18;;;;;;;9.88;1.75;;;10.60;99.90;;;;;;4975788;28;20050;-66
2022/09/17 06:41:44;;;;;;;15.38;2.28;;;10.70;99.90;;;;;;4975818;28;20057;-66
2022/09/17 06:44:10;;;;;;;11.40;1.90;;;10.70;99.90;;;;;;4975815;28;20047;-66
2022/09/17 06:46:36;;;;;;;9.27;1.27;;;10.70;99.90;;;;;;4975656;28;20415;-66
2022/09/17 06:49:02;;;;;;;11.00;1.95;;;10.80;99.90;;;;;;4976011;28;20050;-66
2022/09/17 06:51:27;;;;;;;7.53;1.33;;;10.70;99.90;;;;;;4979263;28;20042;-66
2022/09/17 06:53:53;;;;;;;10.13;1.75;;;10.70;99.90;;;;;;4979249;28;20046;-66
2022/09/17 06:56:18;;;;;;;9.57;2.35;;;10.70;99.90;;;;;;4979359;28;20042;-66
2022/09/17 06:58:44;;;;;;;11.85;1.90;;;10.70;99.90;;;;;;4962994;28;20485;-66
2022/09/17 07:01:10;;;;;;;8.10;1.48;;;10.70;99.90;;;;;;4979385;28;20046;-66
2022/09/17 07:03:37;;;;;;;12.60;1.58;;;10.80;99.90;;;;;;4979009;28;20482;-66
2022/09/17 07:06:03;;;;;;;10.55;1.65;;;10.80;99.90;;;;;;4979299;28;20486;-66
2022/09/17 07:08:33;;;;;;;10.88;1.90;;;10.90;99.90;;;;;;4978955;28;20053;-66
2022/09/17 07:10:59;;;;;;;8.05;1.48;;;11.10;99.90;;;;;;4978887;28;20089;-66
2022/09/17 07:13:25;;;;;;;13.15;2.00;;;11.20;99.90;;;;;;4978856;28;20046;-66
2022/09/17 07:15:58;;;;;;;16.73;2.20;;;11.20;99.90;;;;;;4962937;28;20054;-66
2022/09/17 07:18:25;;;;;;;13.38;2.00;;;11.20;99.90;;;;;;4978676;28;20450;-66
2022/09/17 07:21:00;;;;;;;11.25;1.80;;;11.20;99.90;;;;;;4978684;28;20077;-66
2022/09/17 07:23:31;;;;;;;9.32;2.20;;;11.30;99.90;;;;;;4978691;28;20093;-66
2022/09/17 07:26:01;;;;;;;16.40;1.83;;;11.20;99.90;;;;;;4978643;28;20487;-66
2022/09/17 07:28:27;;;;;;;9.48;1.52;;;11.30;99.90;;;;;;4978804;28;20042;-66
2022/09/17 07:30:54;;;;;;;11.23;1.50;;;11.40;99.90;;;;;;4962492;28;20042;-66
2022/09/17 07:33:22;;;;;;;10.80;1.55;;;11.50;99.90;;;;;;4978456;28;20529;-66
2022/09/17 07:35:56;;;;;;;10.75;1.40;;;11.60;99.90;;;;;;4978379;28;20097;-67
2022/09/17 07:38:22;;;;;;;8.15;1.10;;;11.60;99.90;;;;;;4978497;28;20145;-66
2022/09/17 07:41:11;;;;;;;15.15;2.45;;;11.60;99.90;;;;;;4978351;28;20503;-66
2022/09/17 07:43:37;;;;;;;14.50;2.03;;;11.60;99.90;;;;;;4978684;28;20030;-66
2022/09/17 07:46:04;;;;;;;10.57;1.90;;;11.70;99.90;;;;;;4978141;28;20049;-66
2022/09/17 07:48:30;;;;;;;7.05;1.42;;;11.80;99.90;;;;;;4978152;28;20046;-66
2022/09/17 07:50:56;;;;;;;7.03;1.33;;;11.90;99.90;;;;;;4978349;28;20096;-66
2022/09/17 07:53:21;;;;;;;11.02;1.73;;;12.00;99.90;;;;;;4978347;28;20057;-66
2022/09/17 07:56:06;;;;;;;11.35;1.30;;;12.10;99.90;;;;;;4978091;28;20490;-67
2022/09/17 07:58:35;;;;;;;10.27;1.42;;;12.30;99.90;;;;;;4977999;28;20074;-66
2022/09/17 08:01:07;;;;;;;9.90;1.27;;;12.50;99.90;;;;;;4977637;28;20406;-66
2022/09/17 08:03:33;;;;;;;11.00;1.40;;;12.70;99.90;;;;;;4978014;28;20050;-66
2022/09/17 08:06:03;;;;;;;7.60;1.70;;;12.80;99.90;;;;;;4978042;28;20038;-66
2022/09/17 08:08:31;;;;;;;14.10;2.08;;;12.80;99.90;;;;;;4977884;28;20053;-66
2022/09/17 08:11:00;;;;;;;9.13;1.50;;;12.70;99.90;;;;;;4978064;28;20124;-66
2022/09/17 08:13:26;;;;;;;7.05;1.05;;;12.60;99.90;;;;;;4978017;28;20046;-66
2022/09/17 08:15:51;;;;;;;11.27;1.40;;;12.50;99.90;;;;;;4977665;28;20040;-67
2022/09/17 08:18:17;;;;;;;9.70;1.00;;;12.40;99.90;;;;;;4977481;28;20133;-66
2022/09/17 08:20:42;;;;;;;7.90;1.13;;;12.50;99.90;;;;;;4977566;28;20034;-66
2022/09/17 08:23:08;;;;;;;7.93;1.00;;;12.60;99.90;;;;;;4978158;28;20042;-67
2022/09/17 08:25:33;;;;;;;6.13;0.90;;;12.80;99.90;;;;;;4977799;28;20050;-66
2022/09/17 08:27:59;;;;;;;5.13;1.13;;;12.80;99.90;;;;;;4977681;28;20403;-66
2022/09/17 08:30:25;;;;;;;8.43;1.02;;;13.00;99.90;;;;;;4977453;28;20518;-66
2022/09/17 08:32:50;;;;;;;9.98;1.25;;;13.00;99.90;;;;;;4977468;28;20054;-66
2022/09/17 08:35:16;;;;;;;6.28;1.15;;;13.00;99.90;;;;;;4977343;28;20054;-66
2022/09/17 08:37:42;;;;;;;7.65;1.10;;;12.80;99.90;;;;;;4977189;28;20494;-66
2022/09/17 08:40:16;;;;;;;9.80;1.50;;;12.70;99.90;;;;;;4977275;28;20042;-66
2022/09/17 08:42:55;;;;;;;7.72;1.25;;;12.60;99.90;;;;;;4977197;28;20046;-66
2022/09/17 08:45:21;;;;;;;7.35;1.38;;;12.60;99.90;;;;;;4977447;28;20081;-67
2022/09/17 08:47:47;;;;;;;6.82;1.27;;;12.60;99.90;;;;;;4977043;28;20495;-66
2022/09/17 08:50:30;;;;;;;8.48;1.17;;;12.60;99.90;;;;;;4977051;28;20050;-66
2022/09/17 08:53:33;;;;;;;5.30;0.90;;;13.00;99.90;;;;;;4960979;28;20050;-69
2022/09/17 08:56:15;;;;;;;5.88;1.25;;;13.30;99.90;;;;;;4976834;28;20042;-67
2022/09/17 08:58:56;;;;;;;7.10;0.95;;;13.50;99.90;;;;;;4976895;28;20411;-67
2022/09/17 09:01:35;;;;;;;10.68;1.33;;;13.70;99.90;;;;;;4977206;28;20043;-67
2022/09/17 09:04:35;;;;;;;5.40;0.70;;;14.20;99.90;;;;;;4976831;28;20042;-67
2022/09/17 09:07:07;;;;;;;6.18;1.63;;;14.90;99.90;;;;;;4977010;28;20501;-67
2022/09/17 09:09:48;;;;;;;8.35;1.08;;;15.50;99.90;;;;;;4976885;28;20617;-67
2022/09/17 09:12:24;;;;;;;7.13;1.40;;;15.90;99.90;;;;;;4976085;28;20042;-67
2022/09/17 09:14:57;;;;;;;7.78;1.38;;;16.30;99.90;;;;;;4976811;28;20038;-67
2022/09/17 09:17:30;;;;;;;7.13;1.27;;;16.80;99.90;;;;;;4976722;28;20148;-67
2022/09/17 09:19:55;;;;;;;;;;;17.10;99.90;;;;;;4977046;28;20079;-67
2022/09/17 09:22:36;;;;;;;5.00;1.00;;;16.70;99.90;;;;;;4976876;28;19953;-67
2022/09/17 09:25:27;;;;;;;8.35;1.05;;;16.20;99.90;;;;;;4960713;28;20092;-67
2022/09/17 09:28:03;;;;;;;6.32;1.20;;;15.60;99.90;;;;;;4971707;28;20057;-67
2022/09/17 09:31:12;;;;;;;6.07;1.40;;;15.20;99.90;;;;;;4976754;28;20108;-67
2022/09/17 09:33:41;;;;;;;5.30;1.00;;;15.60;99.90;;;;;;4960417;28;20069;-67
2022/09/17 09:36:10;;;;;;;7.03;1.10;;;16.20;99.90;;;;;;4976306;28;20046;-67
2022/09/17 09:38:55;;;;;;;6.35;1.35;;;16.00;99.90;;;;;;4960301;28;20046;-67
2022/09/17 09:41:42;;;;;;;5.30;0.80;;;16.00;99.90;;;;;;4976405;28;20042;-68
2022/09/17 09:44:14;;;;;;;8.80;1.55;;;16.00;99.90;;;;;;4976604;28;20050;-68
2022/09/17 09:46:58;;;;;;;7.45;1.35;;;15.80;99.90;;;;;;4976232;28;20042;-68
2022/09/17 09:49:55;;;;;;;6.97;1.63;;;15.60;99.90;;;;;;4977363;28;20093;-67
2022/09/17 09:52:33;;;;;;;7.90;1.15;;;15.30;99.90;;;;;;4960207;28;20042;-67
2022/09/17 09:55:18;;;;;;;7.13;1.45;;;15.00;99.90;;;;;;4976250;28;20131;-67
2022/09/17 09:57:47;;;;;;;7.30;0.95;;;15.10;99.90;;;;;;4976155;28;20096;-66
2022/09/17 10:00:25;;;;;;;7.38;1.38;;;15.40;99.90;;;;;;4976499;28;20082;-67
2022/09/17 10:03:16;;;;;;;10.48;1.15;;;15.10;99.90;;;;;;4976351;28;20046;-67
2022/09/17 10:05:59;;;;;;;5.45;0.80;;;14.90;99.90;;;;;;4963624;28;20058;-67
2022/09/17 10:08:26;;;;;;;4.90;0.80;;;14.50;99.90;;;;;;4976067;28;20403;-68
2022/09/17 10:10:56;;;;;;;3.25;0.57;;;14.20;99.90;;;;;;4993494;28;20093;-67
2022/09/17 10:13:22;;;;;;;3.50;0.80;;;14.50;99.90;;;;;;4976051;28;20402;-67
2022/09/17 10:15:48;;;;;;;5.60;0.95;;;14.60;99.90;;;;;;4976204;28;20053;-68
2022/09/17 10:18:23;;;;;;;3.30;0.85;;;15.00;99.90;;;;;;4975820;28;20410;-68
2022/09/17 10:20:59;;;;;;;6.10;0.95;;;15.50;99.90;;;;;;4976006;28;20030;-68
2022/09/17 10:23:28;;;;;;;5.28;0.85;;;16.00;99.90;;;;;;4976930;28;20042;-68
2022/09/17 10:25:55;;;;;;;14.27;2.38;;;16.50;99.90;;;;;;4997093;28;20486;-68
2022/09/17 10:28:20;;;;;;;7.75;1.20;;;16.40;99.90;;;;;;4980001;28;20050;-68
2022/09/17 10:31:02;;;;;;;6.00;1.00;;;15.90;99.90;;;;;;4979676;28;20129;-68
2022/09/17 10:33:31;;;;;;;4.90;0.88;;;15.40;99.90;;;;;;4963466;28;20100;-68
2022/09/17 10:36:00;;;;;;;8.98;1.48;;;15.10;99.90;;;;;;4979390;28;20038;-68
2022/09/17 10:38:46;;;;;;;4.43;0.73;;;15.30;99.90;;;;;;4980396;28;20459;-68
2022/09/17 10:41:18;;;;;;;3.70;0.80;;;16.00;99.90;;;;;;4979272;28;20054;-68
2022/09/17 10:43:44;;;;;;;4.87;1.00;;;16.50;99.90;;;;;;4963307;28;20037;-68
2022/09/17 10:46:16;;;;;;;4.55;0.98;;;17.00;99.90;;;;;;4963246;28;20046;-68
2022/09/17 10:48:58;;;;;;;5.00;0.80;;;17.40;99.90;;;;;;4979355;28;20065;-68
2022/09/17 10:51:25;;;;;;;6.53;1.10;;;17.70;99.90;;;;;;4979656;28;20161;-68
2022/09/17 10:54:25;;;;;;;7.60;1.10;;;18.10;99.90;;;;;;4979468;28;20092;-68
2022/09/17 10:56:56;;;;;;;7.97;1.23;;;18.00;99.90;;;;;;4898786;28;20051;-68
2022/09/17 11:00:06;;;;;;;7.40;1.30;;;18.30;99.90;;;;;;4979143;28;20483;-68
2022/09/17 11:03:03;;;;;;;8.60;1.40;;;18.60;99.90;;;;;;4979185;28;20042;-68
2022/09/17 11:06:03;;;;;;;11.77;2.05;;;19.00;99.90;;;;;;4979023;28;20046;-68
2022/09/17 11:08:47;;;;;;;8.68;1.25;;;19.00;99.90;;;;;;4979013;28;20058;-68
2022/09/17 11:11:22;;;;;;;9.40;1.30;;;19.10;99.90;;;;;;4978978;28;20487;-69
2022/09/17 11:14:04;;;;;;;9.45;1.70;;;19.10;99.80;;;;;;4963065;28;20133;-68
2022/09/17 11:16:45;;;;;;;8.55;1.27;;;18.50;99.90;;;;;;4978708;28;20049;-68
2022/09/17 11:19:50;;;;;;;6.38;1.20;;;17.60;99.90;;;;;;4962747;28;20113;-68
2022/09/17 11:22:37;;;;;;;4.85;1.13;;;16.70;99.90;;;;;;4951899;28;20125;-68
2022/09/17 11:25:26;;;;;;;7.30;1.55;;;16.00;99.90;;;;;;4978958;28;20046;-68
2022/09/17 11:28:03;;;;;;;7.88;1.15;;;15.50;99.90;;;;;;4962504;28;20045;-68
2022/09/17 11:30:45;;;;;;;8.48;1.27;;;15.20;99.90;;;;;;4978810;28;20080;-68
2022/09/17 11:33:10;;;;;;;6.75;1.40;;;14.90;99.90;;;;;;4962706;28;20113;-68
2022/09/17 11:35:48;;;;;;;6.05;1.23;;;14.70;99.90;;;;;;4978037;28;20498;-68
2022/09/17 11:38:25;;;;;;;6.88;1.30;;;14.60;99.90;;;;;;4978605;28;20137;-68
2022/09/17 11:41:03;;;;;;;8.00;1.40;;;14.70;99.90;;;;;;4962279;28;20092;-68
2022/09/17 11:43:33;;;;;;;5.32;0.90;;;15.00;99.90;;;;;;4978617;28;20042;-70
2022/09/17 11:46:21;;;;;;;8.70;1.27;;;15.00;99.90;;;;;;4978143;28;20450;-68
2022/09/17 11:48:53;;;;;;;5.45;1.17;;;14.90;99.90;;;;;;4978298;28;20050;-68
2022/09/17 11:51:42;;;;;;;9.02;1.90;;;14.90;99.90;;;;;;4979106;28;20060;-68
2022/09/17 11:54:46;;;;;;;5.43;1.00;;;15.00;99.90;;;;;;4961913;28;20046;-68
2022/09/17 11:57:18;;;;;;;4.55;1.20;;;15.20;99.90;;;;;;4929334;28;20101;-68
2022/09/17 11:59:56;;;;;;;5.85;1.00;;;15.00;99.90;;;;;;4977985;28;20042;-68
2022/09/17 12:02:42;;;;;;;6.03;0.88;;;14.90;99.90;;;;;;4961845;28;20085;-69
2022/09/17 12:05:37;;;;;;;5.88;1.08;;;15.20;99.90;;;;;;4977976;28;20574;-68
2022/09/17 12:08:13;;;;;;;6.85;1.20;;;15.80;99.90;;;;;;4977858;28;20101;-68
2022/09/17 12:10:50;;;;;;;6.78;1.52;;;16.40;99.90;;;;;;4978093;28;20136;-68
2022/09/17 12:13:41;;;;;;;6.07;1.00;;;16.70;99.90;;;;;;4977800;28;20046;-68
2022/09/17 12:16:19;;;;;;;9.32;1.50;;;17.10;99.90;;;;;;4977700;28;20078;-69
2022/09/17 12:19:14;;;;;;;7.95;1.48;;;16.80;99.90;;;;;;4977598;28;20494;-67
2022/09/17 12:21:44;;;;;;;5.63;1.58;;;16.30;99.90;;;;;;4977656;28;20042;-67
2022/09/17 12:24:15;;;;;;;6.82;1.35;;;15.90;99.90;;;;;;4977601;28;20403;-67
2022/09/17 12:26:54;;;;;;;11.40;1.90;;;15.60;99.90;;;;;;4977725;28;20125;-67
2022/09/17 12:29:57;;;;;;;8.32;1.95;;;15.40;99.90;;;;;;4977767;28;20049;-67
2022/09/17 12:32:55;;;;;;;5.35;1.40;;;15.40;99.90;;;;;;4961540;28;20046;-67
2022/09/17 12:36:05;;;;;;;10.90;1.52;;;15.90;99.90;;;;;;4977419;28;20050;-67
2022/09/17 12:39:01;;;;;;;9.25;1.73;;;16.50;99.90;;;;;;4977650;28;20156;-68
2022/09/17 12:41:35;;;;;;;8.90;1.65;;;17.10;99.90;;;;;;4977338;28;20042;-67
2022/09/17 12:44:30;;;;;;;13.05;1.98;;;17.60;99.90;;;;;;4977584;28;20039;-67
2022/09/17 12:46:55;;;;;;;10.20;1.70;;;18.10;99.90;;;;;;4976143;28;20121;-67
2022/09/17 12:49:37;;;;;;;9.23;1.60;;;18.00;99.90;;;;;;4977153;28;20137;-67
2022/09/17 12:52:14;;;;;;;9.18;1.58;;;17.50;99.90;;;;;;4977123;28;20077;-67
2022/09/17 12:55:14;;;;;;;7.28;1.25;;;17.00;99.90;;;;;;4977164;28;20057;-69
2022/09/17 12:57:48;;;;;;;8.82;1.60;;;16.60;99.90;;;;;;4977339;28;20265;-68
2022/09/17 13:00:15;;;;;;;9.93;2.17;;;16.60;99.90;;;;;;4960797;28;20570;-68
2022/09/17 13:03:00;;;;;;;10.70;1.67;;;17.10;99.90;;;;;;4976838;28;20491;-68
2022/09/17 13:05:47;;;;;;;16.48;2.83;;;17.60;99.90;;;;;;4976869;28;20041;-68
2022/09/17 13:08:25;;;;;;;10.68;1.80;;;18.00;99.90;;;;;;4977019;28;20572;-69
2022/09/17 13:11:28;;;;;;;16.13;2.60;;;18.50;99.90;;;;;;4976756;28;20458;-69